KGWO/GWO METAR and TAF weather

Enter ICAO airport designator
Station Type Date Time Source
KGWO METAR 2022/11/30 09:53 UTC NOAA

KGWO 300953Z AUTO 34014G26KT 10SM BKN037 12/05 A3003 RMK AO2 PK WND 34035/0925 RAE16B24E33 SLP168 P0000 T01170050


Station Type Date Time Source
KGWO Decoded METAR 2022/11/30 09:53 UTC NOAA

GREENWOOD-LEFLORE AIRPORT, MS, United States (KGWO) 33-30N 090-05W 44M
Nov 30, 2022 - 04:53 AM EST / 2022.11.30 0953 UTC
Wind: from the NNW (340 degrees) at 16 MPH (14 KT) gusting to 30 MPH (26 KT):0
Visibility: 10 mile(s):0
Sky conditions: mostly cloudy
Precipitation last hour: A trace
Temperature: 53.1 F (11.7 C)
Dew Point: 41.0 F (5.0 C)
Relative Humidity: 63%
Pressure (altimeter): 30.03 in. Hg (1016 hPa)
ob: KGWO 300953Z AUTO 34014G26KT 10SM BKN037 12/05 A3003 RMK AO2 PK WND 34035/0925 RAE16B24E33 SLP168 P0000 T01170050
cycle: 10

Station Type Date Time Source
KGWO TAF 2022/11/30 06:46 UTC NOAA

TAF KGWO 300544Z 3006/0106 22007G21KT 6SM -TSRA BR BKN015CB BKN045 OVC070 WS020/24050KT
FM300800 31011G26KT P6SM VCTS OVC022CB
FM300900 34012G27KT P6SM BKN250

Example: see airport list